createdAt,value
2022-10-06T00:00:55.902Z,100487.63
2022-10-06T00:03:24.203Z,100505.16
2022-10-06T00:05:52.643Z,100518.28
2022-10-06T00:08:20.717Z,100492.28
2022-10-06T00:10:48.749Z,100506.13
2022-10-06T00:13:18.219Z,100504.31
2022-10-06T00:15:46.127Z,100497.09
2022-10-06T00:18:14.146Z,100503.31
2022-10-06T00:20:43.543Z,100498.34
2022-10-06T00:23:12.006Z,100493.00
2022-10-06T00:25:39.931Z,100494.69
2022-10-06T00:28:08.268Z,100428.13
2022-10-06T00:30:37.524Z,100422.78
2022-10-06T00:33:05.569Z,100407.00
2022-10-06T00:35:35.589Z,100418.56
2022-10-06T00:38:03.465Z,100428.13
2022-10-06T00:40:32.826Z,100408.97
2022-10-06T00:43:02.398Z,100422.22
2022-10-06T00:45:34.553Z,100447.16
2022-10-06T00:48:06.468Z,100461.56
2022-10-06T00:50:35.017Z,100459.31
2022-10-06T00:53:03.768Z,100474.81
2022-10-06T00:55:32.330Z,100473.53
2022-10-06T00:58:01.293Z,100466.47
2022-10-06T01:00:29.695Z,100443.22
2022-10-06T01:03:03.585Z,100446.47
2022-10-06T01:05:37.127Z,100481.44
2022-10-06T01:08:05.188Z,100494.44
2022-10-06T01:10:33.070Z,100492.84
2022-10-06T01:13:01.451Z,100523.66
2022-10-06T01:15:30.126Z,100504.16
2022-10-06T01:18:03.253Z,100484.53
2022-10-06T01:20:33.348Z,100493.69
2022-10-06T01:23:05.248Z,100511.94
2022-10-06T01:25:35.701Z,100511.34
2022-10-06T01:28:05.722Z,100512.78
2022-10-06T01:30:39.931Z,100511.94
2022-10-06T01:33:08.356Z,100514.63
2022-10-06T01:35:36.234Z,100481.44
2022-10-06T01:38:05.630Z,100443.38
2022-10-06T01:40:33.579Z,100460.56
2022-10-06T01:43:01.738Z,100465.09
2022-10-06T01:45:29.644Z,100504.88
2022-10-06T01:47:57.463Z,100482.56
2022-10-06T01:50:25.476Z,100453.22
2022-10-06T01:52:53.471Z,100408.28
2022-10-06T01:55:22.996Z,100359.75
2022-10-06T01:57:50.945Z,100390.22
2022-10-06T02:00:19.546Z,100402.47
2022-10-06T02:02:47.475Z,100391.22
2022-10-06T02:05:15.736Z,100386.69
2022-10-06T02:07:45.965Z,100379.94
2022-10-06T02:10:14.008Z,100399.41
2022-10-06T02:12:43.210Z,100421.09
2022-10-06T02:15:12.032Z,100422.09
2022-10-06T02:17:40.371Z,100433.91
2022-10-06T02:20:08.660Z,100435.59
2022-10-06T02:22:38.806Z,100415.44
2022-10-06T02:25:07.489Z,100420.81
2022-10-06T02:27:35.301Z,100406.00
2022-10-06T02:30:05.928Z,100407.00
2022-10-06T02:32:35.185Z,100398.94
2022-10-06T02:35:03.802Z,100362.97
2022-10-06T02:37:31.900Z,100372.00
2022-10-06T02:40:00.003Z,100402.34
2022-10-06T02:42:28.363Z,100395.28
2022-10-06T02:44:59.068Z,100401.63
2022-10-06T02:47:29.608Z,100417.41
2022-10-06T02:49:57.481Z,100390.91
2022-10-06T02:52:25.307Z,100401.63
2022-10-06T02:54:53.240Z,100377.81
2022-10-06T02:57:21.414Z,100362.28
2022-10-06T02:59:49.578Z,100340.44
2022-10-06T03:02:17.840Z,100338.22
2022-10-06T03:04:47.146Z,100345.09
2022-10-06T03:07:15.510Z,100353.41
2022-10-06T03:09:43.933Z,100355.09
2022-10-06T03:12:12.406Z,100351.72
2022-10-06T03:14:40.711Z,100326.50
2022-10-06T03:17:09.915Z,100314.25
2022-10-06T03:19:38.520Z,100326.34
2022-10-06T03:22:08.079Z,100332.25
2022-10-06T03:24:36.069Z,100326.66
2022-10-06T03:27:03.894Z,100286.34
2022-10-06T03:29:31.982Z,100285.91
2022-10-06T03:32:03.234Z,100298.47
2022-10-06T03:34:31.076Z,100310.28
2022-10-06T03:36:59.195Z,100288.75
2022-10-06T03:39:28.645Z,100301.00
2022-10-06T03:41:58.515Z,100259.88
2022-10-06T03:44:26.374Z,100283.22
2022-10-06T03:46:54.937Z,100247.47
2022-10-06T03:49:22.859Z,100205.50
2022-10-06T03:51:50.756Z,100217.63
2022-10-06T03:54:18.712Z,100222.69
2022-10-06T03:56:47.935Z,100228.28
2022-10-06T03:59:17.480Z,100245.78
2022-10-06T04:01:47.591Z,100243.25
2022-10-06T04:04:15.721Z,100191.13
2022-10-06T04:06:45.057Z,100155.09
2022-10-06T04:09:15.937Z,100150.72
2022-10-06T04:11:45.545Z,100112.16
2022-10-06T04:14:17.248Z,100075.53
2022-10-06T04:16:46.934Z,100028.41
2022-10-06T04:19:16.420Z,100009.28
2022-10-06T04:21:47.725Z,99944.00
2022-10-06T04:24:17.364Z,99917.53
2022-10-06T04:26:48.864Z,99874.28
2022-10-06T04:40:23.014Z,99716.59
2022-10-06T04:42:50.885Z,99713.09
2022-10-06T04:45:20.169Z,99674.91
2022-10-06T04:47:49.818Z,99666.91
2022-10-06T04:50:18.369Z,99653.16
2022-10-06T04:52:46.214Z,99639.09
2022-10-06T04:55:14.311Z,99619.31
2022-10-06T04:57:42.479Z,99586.03
2022-10-06T05:00:25.523Z,99609.47
2022-10-06T05:02:56.611Z,99595.56
2022-10-06T05:05:24.789Z,99582.69
2022-10-06T05:07:53.048Z,99558.88
2022-10-06T05:10:20.833Z,99561.91
2022-10-06T05:12:48.766Z,99557.56
2022-10-06T05:15:17.010Z,99550.41
2022-10-06T05:17:45.152Z,99533.91
2022-10-06T05:20:14.459Z,99561.78
2022-10-06T05:22:42.492Z,99564.44
2022-10-06T05:25:11.195Z,99563.59
2022-10-06T05:27:39.127Z,99557.41
2022-10-06T05:30:07.831Z,99571.47
2022-10-06T05:32:36.394Z,99600.22
2022-10-06T05:35:04.775Z,99554.56
2022-10-06T05:37:34.175Z,99616.63
2022-10-06T05:40:02.268Z,99612.13
2022-10-06T05:42:30.126Z,99624.38
2022-10-06T05:44:58.017Z,99610.91
2022-10-06T05:47:26.892Z,99631.41
2022-10-06T05:49:54.691Z,99639.41
2022-10-06T05:52:22.932Z,99642.78
2022-10-06T05:54:53.973Z,99611.69
2022-10-06T05:57:22.143Z,99624.81
2022-10-06T05:59:49.982Z,99616.63
2022-10-06T06:02:18.650Z,99612.59
2022-10-06T06:04:49.416Z,99648.13
2022-10-06T06:07:17.332Z,99633.22
2022-10-06T06:09:45.392Z,99628.00
2022-10-06T06:12:16.881Z,99621.13
2022-10-06T06:15:02.141Z,99620.06
2022-10-06T06:17:32.758Z,99658.50
2022-10-06T06:20:00.798Z,99633.13
2022-10-06T06:22:28.736Z,99624.03
2022-10-06T06:25:00.504Z,99625.25
2022-10-06T06:27:29.701Z,99636.03
2022-10-06T06:29:58.348Z,99634.94
2022-10-06T06:32:28.104Z,99640.00
2022-10-06T06:34:56.373Z,99651.47
2022-10-06T06:37:31.566Z,99627.56
2022-10-06T06:39:59.936Z,99635.25
2022-10-06T06:42:29.424Z,99676.66
2022-10-06T06:44:57.626Z,99685.59
2022-10-06T06:47:26.766Z,99668.91
2022-10-06T06:49:55.317Z,99722.78
2022-10-06T06:52:23.668Z,99733.47
2022-10-06T06:54:51.590Z,99732.47
2022-10-06T06:57:21.429Z,99744.16
2022-10-06T06:59:50.847Z,99782.09
2022-10-06T07:02:18.798Z,99826.63
2022-10-06T07:04:47.224Z,99836.03
2022-10-06T07:07:15.085Z,99873.56
2022-10-06T07:09:44.062Z,99890.59
2022-10-06T07:12:12.837Z,99885.09
2022-10-06T07:15:01.198Z,99916.31
2022-10-06T07:17:48.122Z,100022.53
2022-10-06T07:20:33.862Z,100250.69
2022-10-06T07:23:19.266Z,100595.72
2022-10-06T07:25:47.214Z,100818.56
2022-10-06T07:28:34.891Z,100875.34
2022-10-06T07:31:16.132Z,100807.38
2022-10-06T07:33:48.192Z,100966.13
2022-10-06T07:36:17.029Z,100808.09
2022-10-06T07:38:44.906Z,100551.16
2022-10-06T07:41:20.764Z,100409.97
2022-10-06T07:43:49.071Z,100329.03
2022-10-06T07:46:19.371Z,100228.59
2022-10-06T07:48:50.403Z,100183.25
2022-10-06T07:51:20.237Z,100074.34
2022-10-06T07:53:51.317Z,100043.34
2022-10-06T07:56:20.563Z,99989.88
2022-10-06T07:58:51.776Z,100191.69
2022-10-06T08:01:21.432Z,100410.09
2022-10-06T08:03:53.676Z,100570.47
2022-10-06T08:06:23.685Z,100814.44
2022-10-06T08:08:53.757Z,100994.03
2022-10-06T08:11:23.329Z,101056.38
2022-10-06T08:13:52.113Z,101181.19
2022-10-06T08:16:28.525Z,101091.75
2022-10-06T08:18:59.957Z,101168.88
2022-10-06T08:21:29.936Z,101002.09
2022-10-06T08:23:59.959Z,101293.63
2022-10-06T08:29:11.830Z,101653.28
2022-10-06T08:31:40.079Z,101690.00
2022-10-06T08:34:23.911Z,101517.47
2022-10-06T08:37:18.698Z,101393.25
2022-10-06T08:39:41.472Z,101322.25
2022-10-06T08:42:14.045Z,101323.38
2022-10-06T08:44:45.580Z,101376.09
2022-10-06T08:47:18.446Z,101534.94
2022-10-06T08:49:50.174Z,101658.09
2022-10-06T08:52:27.668Z,101780.72
2022-10-06T08:55:06.734Z,101630.50
2022-10-06T08:57:41.675Z,101656.91
2022-10-06T09:00:12.628Z,101597.75
2022-10-06T09:02:45.685Z,101616.19
2022-10-06T09:05:25.371Z,101903.81
2022-10-06T09:08:17.001Z,101896.84
2022-10-06T09:10:54.914Z,101652.25
2022-10-06T09:13:29.783Z,101380.84
2022-10-06T09:16:02.059Z,101379.28
2022-10-06T09:18:56.147Z,101332.59
2022-10-06T09:21:32.296Z,101422.91
2022-10-06T09:24:06.293Z,101363.66
2022-10-06T09:26:37.388Z,101441.22
2022-10-06T09:29:05.817Z,101657.94
2022-10-06T09:31:39.086Z,101766.03
2022-10-06T09:34:19.204Z,102251.81
2022-10-06T09:37:03.436Z,102509.09
2022-10-06T09:39:36.744Z,102455.44
2022-10-06T09:42:12.618Z,102535.59
2022-10-06T09:44:48.238Z,102424.16
2022-10-06T09:47:41.993Z,102507.38
2022-10-06T09:50:20.593Z,102572.72
2022-10-06T09:53:16.389Z,102440.09
2022-10-06T09:55:51.456Z,102047.00
2022-10-06T09:58:31.646Z,101768.72
2022-10-06T10:01:08.732Z,101657.41
2022-10-06T10:04:15.579Z,102007.78
2022-10-06T10:06:40.264Z,102748.56
2022-10-06T10:09:24.644Z,102933.41
2022-10-06T10:12:27.642Z,102749.53
2022-10-06T10:14:59.204Z,102278.88
2022-10-06T10:17:42.664Z,102147.00
2022-10-06T10:20:30.088Z,102380.19
2022-10-06T10:23:00.874Z,102210.00
2022-10-06T10:26:02.854Z,102167.31
2022-10-06T10:28:50.876Z,102132.03
2022-10-06T10:31:31.314Z,102099.53
2022-10-06T10:34:23.075Z,101975.25
2022-10-06T10:36:55.762Z,101692.81
2022-10-06T10:39:33.434Z,101304.47
2022-10-06T10:42:07.447Z,101201.78
2022-10-06T10:44:39.050Z,101019.38
2022-10-06T10:47:16.042Z,100928.28
2022-10-06T10:49:48.211Z,100935.22
2022-10-06T10:52:20.773Z,100894.63
2022-10-06T10:54:53.720Z,100828.31
2022-10-06T10:57:29.059Z,100820.97
2022-10-06T11:00:01.758Z,100752.69
2022-10-06T11:02:29.971Z,100729.81
2022-10-06T11:05:03.943Z,100735.88
2022-10-06T11:07:52.650Z,100696.50
2022-10-06T11:10:51.736Z,100622.06
2022-10-06T11:13:33.503Z,100570.31
2022-10-06T11:16:19.212Z,100574.94
2022-10-06T11:19:15.984Z,100562.81
2022-10-06T11:21:54.934Z,100504.94
2022-10-06T11:24:32.792Z,100486.47
2022-10-06T11:27:15.138Z,100512.44
2022-10-06T11:30:02.156Z,100507.91
2022-10-06T11:33:10.906Z,101054.44
2022-10-06T11:35:42.598Z,101866.19
2022-10-06T11:38:17.432Z,102627.47
2022-10-06T11:41:01.007Z,102883.34
2022-10-06T11:43:38.307Z,102765.63
2022-10-06T11:46:21.596Z,102762.66
2022-10-06T11:48:49.953Z,102823.19
2022-10-06T11:51:36.118Z,103086.56
2022-10-06T11:54:04.504Z,103052.81
2022-10-06T11:56:41.275Z,103152.97
2022-10-06T11:59:28.695Z,102937.59
2022-10-06T12:02:02.361Z,102578.53
2022-10-06T12:04:31.325Z,102251.47
2022-10-06T12:07:03.116Z,101701.13
2022-10-06T12:09:53.421Z,101514.50
2022-10-06T12:12:45.881Z,101606.59
2022-10-06T12:18:36.519Z,101900.03
2022-10-06T12:21:12.855Z,102082.63
2022-10-06T12:23:49.892Z,102434.88
2022-10-06T12:26:28.490Z,102136.44
2022-10-06T12:29:05.092Z,101773.16
2022-10-06T12:31:48.591Z,101985.22
2022-10-06T12:34:53.479Z,102153.56
2022-10-06T12:37:35.070Z,101962.59
2022-10-06T12:40:40.458Z,102059.81
2022-10-06T12:43:24.862Z,101918.97
2022-10-06T12:45:59.297Z,102088.25
2022-10-06T12:48:34.872Z,101931.31
2022-10-06T12:51:14.321Z,101961.78
2022-10-06T12:53:52.247Z,101989.97
2022-10-06T12:56:28.774Z,102273.06
2022-10-06T12:58:56.970Z,102022.69
2022-10-06T13:01:26.948Z,102046.34
2022-10-06T13:03:56.073Z,101897.66
2022-10-06T13:06:26.575Z,101820.53
2022-10-06T13:09:14.003Z,101561.06
2022-10-06T13:11:41.860Z,101318.16
2022-10-06T13:14:13.910Z,101217.28
2022-10-06T13:16:44.083Z,101124.06
2022-10-06T13:19:18.289Z,101373.44
2022-10-06T13:21:50.436Z,101659.56
2022-10-06T13:24:24.758Z,101946.16
2022-10-06T13:26:53.437Z,102103.38
2022-10-06T13:29:25.147Z,102100.69
2022-10-06T13:31:54.858Z,101921.47
2022-10-06T13:34:29.056Z,101611.75
2022-10-06T13:47:29.926Z,101034.50
2022-10-06T13:50:02.872Z,101069.72
2022-10-06T13:52:36.219Z,101135.00
2022-10-06T13:55:06.428Z,101451.72
2022-10-06T13:57:36.029Z,101533.31
2022-10-06T14:00:08.293Z,101807.22
2022-10-06T14:02:38.602Z,102008.84
2022-10-06T14:05:24.248Z,102157.97
2022-10-06T14:07:52.900Z,102130.06
2022-10-06T14:12:59.214Z,102567.13
2022-10-06T14:15:30.947Z,102914.19
2022-10-06T14:18:02.475Z,103099.63
2022-10-06T14:20:47.028Z,103389.41
2022-10-06T14:23:44.607Z,103473.53
2022-10-06T14:26:17.126Z,103019.81
2022-10-06T14:28:52.841Z,102436.22
2022-10-06T14:31:22.182Z,102394.47
2022-10-06T14:33:53.072Z,102356.94
2022-10-06T14:36:23.783Z,102095.94
2022-10-06T14:38:53.319Z,101644.75
2022-10-06T14:41:25.063Z,101320.00
2022-10-06T14:43:54.050Z,101121.00
2022-10-06T14:46:22.310Z,100950.56
2022-10-06T14:48:52.899Z,100722.16
2022-10-06T14:51:22.170Z,100552.41
2022-10-06T14:53:54.558Z,100422.03
2022-10-06T14:56:24.725Z,100248.66
2022-10-06T14:58:53.186Z,100180.84
2022-10-06T15:01:25.183Z,100135.34
2022-10-06T15:03:55.756Z,100029.47
2022-10-06T15:06:41.938Z,99984.31
2022-10-06T15:09:13.443Z,99915.38
2022-10-06T15:11:42.487Z,99862.13
2022-10-06T15:14:10.677Z,99869.78
2022-10-06T15:16:42.335Z,99851.78
2022-10-06T15:19:13.336Z,99839.25
2022-10-06T15:21:45.416Z,99813.41
2022-10-06T15:24:17.786Z,99776.66
2022-10-06T15:27:05.024Z,99776.56
2022-10-06T15:29:35.884Z,99733.03
2022-10-06T15:32:06.343Z,99725.16
2022-10-06T15:34:38.009Z,99683.47
2022-10-06T15:37:06.755Z,99690.56
2022-10-06T15:39:38.085Z,99713.72
2022-10-06T15:42:08.058Z,99705.97
2022-10-06T15:44:36.675Z,99689.41
2022-10-06T15:47:06.846Z,99665.81
2022-10-06T15:49:40.496Z,99627.94
2022-10-06T15:52:10.251Z,99628.31
2022-10-06T15:54:39.637Z,99616.25
2022-10-06T15:57:09.638Z,99576.53
2022-10-06T15:59:40.391Z,99571.34
2022-10-06T16:02:14.810Z,99551.09
2022-10-06T16:04:57.388Z,99488.69
2022-10-06T16:07:25.442Z,99455.13
2022-10-06T16:09:53.478Z,99480.66
2022-10-06T16:12:28.655Z,99486.97
2022-10-06T16:14:56.606Z,99501.06
2022-10-06T16:17:24.465Z,99528.88
2022-10-06T16:19:57.318Z,99518.34
2022-10-06T16:22:25.409Z,99521.69
2022-10-06T16:41:40.584Z,99410.44
2022-10-06T16:44:09.952Z,99390.38
2022-10-06T16:47:32.568Z,99377.81
2022-10-06T16:50:00.816Z,99338.09
2022-10-06T16:52:54.427Z,99354.75
2022-10-06T16:55:22.457Z,99339.13
2022-10-06T16:57:50.529Z,99369.63
2022-10-06T17:00:18.834Z,99391.38
2022-10-06T17:02:46.828Z,99369.47
2022-10-06T17:05:15.089Z,99333.47
2022-10-06T17:07:43.307Z,99345.56
2022-10-06T17:10:20.527Z,99342.56
2022-10-06T17:12:49.259Z,99326.00
2022-10-06T17:15:17.545Z,99303.41
2022-10-06T17:17:45.610Z,99266.00
2022-10-06T17:20:15.766Z,99268.66
2022-10-06T17:22:44.407Z,99255.63
2022-10-06T17:25:14.215Z,99251.41
2022-10-06T17:27:43.968Z,99250.03
2022-10-06T17:30:14.886Z,99286.88
2022-10-06T17:32:47.724Z,99282.69
2022-10-06T17:35:16.057Z,99240.56
2022-10-06T17:37:44.033Z,99269.97
2022-10-06T17:40:12.147Z,99287.03
2022-10-06T17:42:41.481Z,99263.63
2022-10-06T17:45:11.555Z,99273.69
2022-10-06T17:47:39.737Z,99259.97
2022-10-06T17:50:08.562Z,99275.69
2022-10-06T17:52:39.123Z,99283.38
2022-10-06T17:55:09.036Z,99309.59
2022-10-06T17:57:36.896Z,99330.19
2022-10-06T18:00:07.479Z,99333.19
2022-10-06T18:02:36.891Z,99373.66
2022-10-06T18:05:05.782Z,99373.63
2022-10-06T18:07:34.351Z,99376.97
2022-10-06T18:10:19.917Z,99412.78
2022-10-06T18:12:47.840Z,99427.97
2022-10-06T18:15:18.035Z,99438.66
2022-10-06T18:17:50.973Z,99432.47
2022-10-06T18:20:19.420Z,99463.31
2022-10-06T18:22:48.537Z,99448.13
2022-10-06T18:25:17.131Z,99437.91
2022-10-06T18:27:47.595Z,99393.03
2022-10-06T18:30:23.736Z,99398.06
2022-10-06T18:36:17.606Z,99349.41
2022-10-06T18:38:47.362Z,99342.56
2022-10-06T18:41:18.045Z,99337.88
2022-10-06T18:43:46.366Z,99337.22
2022-10-06T18:46:33.356Z,99326.69
2022-10-06T18:49:10.321Z,99303.41
2022-10-06T18:51:44.584Z,99287.72
2022-10-06T18:54:15.305Z,99303.09
2022-10-06T18:56:47.868Z,99304.06
2022-10-06T18:59:24.340Z,99293.06
2022-10-06T19:01:52.971Z,99304.94
2022-10-06T19:04:23.854Z,99282.69
2022-10-06T19:06:54.068Z,99245.44
2022-10-06T19:09:23.779Z,99245.44
2022-10-06T19:11:53.267Z,99229.41
2022-10-06T19:14:22.856Z,99185.75
2022-10-06T19:16:54.494Z,99178.94
2022-10-06T19:19:26.541Z,99177.44
2022-10-06T19:21:57.408Z,99176.44
2022-10-06T19:24:25.332Z,99160.72
2022-10-06T19:26:55.126Z,99155.50
2022-10-06T19:29:24.434Z,99156.84
2022-10-06T19:31:55.626Z,99155.41
2022-10-06T19:34:28.271Z,99119.94
2022-10-06T19:36:58.129Z,99097.53
2022-10-06T19:39:30.614Z,99125.13
2022-10-06T19:42:16.100Z,99124.47
2022-10-06T19:44:44.725Z,99139.03
2022-10-06T19:47:15.739Z,99124.63
2022-10-06T19:49:46.222Z,99095.84
2022-10-06T19:52:16.771Z,99096.59
2022-10-06T19:54:46.214Z,99067.50
2022-10-06T19:57:14.404Z,99065.50
2022-10-06T19:59:44.822Z,99051.81
2022-10-06T20:02:13.302Z,99040.63
2022-10-06T20:04:41.122Z,99034.78
2022-10-06T20:07:10.777Z,99014.09
2022-10-06T20:09:38.906Z,99025.63
2022-10-06T20:12:07.088Z,99056.00
2022-10-06T20:14:41.493Z,99092.09
2022-10-06T20:17:15.560Z,99100.03
2022-10-06T20:19:46.067Z,99133.94
2022-10-06T20:22:15.810Z,99153.72
2022-10-06T20:24:43.969Z,99169.06
2022-10-06T20:27:12.387Z,99174.44
2022-10-06T20:29:40.436Z,99176.75
2022-10-06T20:32:08.316Z,99147.31
2022-10-06T20:34:36.490Z,99175.44
2022-10-06T20:37:06.435Z,99159.06
2022-10-06T20:39:52.693Z,99146.34
2022-10-06T20:42:21.888Z,99162.41
2022-10-06T20:44:50.180Z,99117.44
2022-10-06T20:47:18.666Z,99129.44
2022-10-06T20:49:46.531Z,99129.97
2022-10-06T20:52:15.180Z,99125.97
2022-10-06T20:54:45.095Z,99138.16
2022-10-06T20:57:13.081Z,99113.13
2022-10-06T20:59:45.351Z,99135.66
2022-10-06T21:02:13.541Z,99132.78
2022-10-06T21:04:43.574Z,99123.78
2022-10-06T21:07:11.965Z,99123.47
2022-10-06T21:09:39.948Z,99141.81
2022-10-06T21:12:09.307Z,99140.00
2022-10-06T21:14:37.779Z,99139.88
2022-10-06T21:17:06.760Z,99136.50
2022-10-06T21:19:37.861Z,99128.63
2022-10-06T21:22:06.560Z,99093.88
2022-10-06T21:24:34.576Z,99122.63
2022-10-06T21:27:03.431Z,99124.31
2022-10-06T21:29:32.820Z,99078.41
2022-10-06T21:32:01.251Z,99043.47
2022-10-06T21:34:29.303Z,99067.50
2022-10-06T21:36:57.772Z,99056.81
2022-10-06T21:39:28.231Z,99046.47
2022-10-06T21:41:56.771Z,98995.69
2022-10-06T21:44:25.209Z,99020.28
2022-10-06T21:46:56.168Z,99019.44
2022-10-06T21:49:26.326Z,99019.63
2022-10-06T21:51:55.844Z,99019.63
2022-10-06T21:54:24.561Z,99000.44
2022-10-06T21:56:52.888Z,98979.38
2022-10-06T21:59:20.836Z,99003.25
2022-10-06T22:01:50.630Z,99011.78
2022-10-06T22:04:20.547Z,98975.03
2022-10-06T22:06:50.215Z,98987.75
2022-10-06T22:09:20.307Z,98993.91
2022-10-06T22:11:48.686Z,98995.41
2022-10-06T22:14:19.450Z,99019.94
2022-10-06T22:16:48.077Z,99035.13
2022-10-06T22:19:17.955Z,99030.13
2022-10-06T22:21:49.543Z,99015.59
2022-10-06T22:24:19.861Z,99017.09
2022-10-06T22:26:48.788Z,99021.78
2022-10-06T22:29:18.810Z,99030.13
2022-10-06T22:31:48.425Z,99029.13
2022-10-06T22:34:17.721Z,99015.75
2022-10-06T22:36:47.757Z,99022.25
2022-10-06T22:39:15.826Z,99020.78
2022-10-06T22:41:44.128Z,99027.78
2022-10-06T22:44:12.205Z,99008.44
2022-10-06T22:46:40.330Z,99001.09
2022-10-06T22:49:08.360Z,98981.03
2022-10-06T22:51:36.866Z,98998.09
2022-10-06T22:54:06.230Z,98949.50
2022-10-06T22:56:35.656Z,98957.19
2022-10-06T22:59:04.382Z,98954.69
2022-10-06T23:01:32.466Z,98946.19
2022-10-06T23:04:00.491Z,98959.19
2022-10-06T23:06:29.976Z,98970.22
2022-10-06T23:08:58.424Z,98983.25
2022-10-06T23:11:28.088Z,98952.00
2022-10-06T23:13:58.658Z,98952.03
2022-10-06T23:16:26.803Z,98944.84
2022-10-06T23:18:55.152Z,98933.84
2022-10-06T23:21:27.908Z,98932.34
2022-10-06T23:23:59.283Z,98914.47
2022-10-06T23:26:29.254Z,98892.66
2022-10-06T23:28:58.924Z,98899.66
2022-10-06T23:31:28.196Z,98895.16
2022-10-06T23:33:56.558Z,98893.16
2022-10-06T23:36:24.507Z,98883.97
2022-10-06T23:38:52.952Z,98867.75
2022-10-06T23:41:21.383Z,98861.59
2022-10-06T23:43:50.660Z,98865.47
2022-10-06T23:46:18.865Z,98863.63
2022-10-06T23:48:47.089Z,98855.13
2022-10-06T23:51:16.865Z,98848.94
2022-10-06T23:53:45.692Z,98811.44
2022-10-06T23:56:14.226Z,98834.44
2022-10-06T23:58:42.937Z,98818.94
